Rochelle, GA

9:37 AM EST on February 25, 2017 (GMT -0500)
Abbeville, GA | | Change Station
Active Advisory: Special Statement

Elev 253 ft 32.00 °N, 83.32 °W | Updated 36 seconds ago

Overcast
Overcast
69.4 °F
Feels Like 69.4 °F
N
4.0
Wind Variable Wind from WSW

Today
High -- | Low -- °F
--% Chance of Precip.
Yesterday
High -- | Low -- °F
Precip. -- in
Pressure 29.88 in
Visibility 10.0 miles
Clouds Mostly Cloudy 1000 ft
Overcast 1300 ft
Dew Point 65 °F
Humidity 86%
Rainfall 0.00 in
Snow Depth Not available.
7:05 AM 6:28 PM
Waning Crescent, 1% visible
METAR KCKF 251415Z AUTO 24007KT 10SM BKN010 OVC013 19/18 A2988 RMK AO2 T01920177
Pressure 29.88 in
Visibility 10.0 miles
Clouds Mostly Cloudy 1000 ft
Overcast 1300 ft
Dew Point 65 °F
Humidity 86%
Rainfall 0.00 in
Snow Depth Not available.
7:05 AM 6:28 PM
Waning Crescent, 1% visible
METAR KCKF 251415Z AUTO 24007KT 10SM BKN010 OVC013 19/18 A2988 RMK AO2 T01920177

Get Your Daily Forecast Email!

Thanks for signing up!

Be on the lookout for a verification email in your inbox.

You'll start receiving the daily forecast at 8 AM.

×

10-Day Weather Forecast

Almanac

Astronomy

Feb. 25, 2017 Rise Set
Actual Time
Civil Twilight
Nautical Twilight
Astronomical Twilight
Moon
Length of Visible Light
Length of Day
Tomorrow will be .
, % of the Moon is Illuminated

Today's Extremes

State Highs State Lows

Community

WunderPhotos

Upload Photos

1,962,540 photos uploaded!

WunderBlog® & News

Nearby

Air Quality

  Air Quality AQ Index Pollutant
Not available.

Snow Depth

Station Depth Elevation

Earthquake Activity

City Distance Mag. Time & Date
Minimum magnitude displayed is 2.5.

Coastal Water Temperatures

Place Temperature

Stations

Nearby Weather Stations

Station Location Temp. Windchill Dew Point Humidity Wind Precip. Elev Updated Type
                   

Watches & Warnings

Special Statement
Issued: 4:17 AM EST Feb. 25, 2017 – National Weather Service

... High fire danger conditions this afternoon into the evening
for parts of north and central Georgia due to strong winds...

Sustained winds of 15 to 20 mph can be expected along with gusts
of 25 to 30 mph. Relative humidities look to reach 20 to 30
percent for about 3 hours this afternoon.

With dry fuels... high fire danger conditions can be expected.

Please refer to your local burn permitting authorities
concerning whether you may burn outdoors. If you do burn
outside, use extreme caution.